createdAt,value
2018-06-20T00:03:44.256Z,99.99
2018-06-20T00:13:41.416Z,99.99
2018-06-20T00:23:36.359Z,99.99
2018-06-20T00:33:35.797Z,99.99
2018-06-20T00:43:35.824Z,99.99
2018-06-20T00:53:16.198Z,99.99
2018-06-20T01:03:12.224Z,99.99
2018-06-20T01:13:09.459Z,99.99
2018-06-20T01:23:07.639Z,99.99
2018-06-20T01:33:07.819Z,99.99
2018-06-20T01:43:03.312Z,99.99
2018-06-20T01:52:59.461Z,99.99
2018-06-20T02:02:57.746Z,99.99
2018-06-20T02:12:54.287Z,99.99
2018-06-20T02:22:53.047Z,99.99
2018-06-20T02:32:50.335Z,99.99
2018-06-20T02:42:49.430Z,99.99
2018-06-20T02:52:45.824Z,99.99
2018-06-20T03:02:41.656Z,99.99
2018-06-20T03:12:40.011Z,99.99
2018-06-20T03:22:39.838Z,99.99
2018-06-20T03:32:38.969Z,99.99
2018-06-20T03:42:35.884Z,99.99
2018-06-20T03:52:35.575Z,99.99
2018-06-20T04:02:32.854Z,99.99
2018-06-20T04:12:33.142Z,99.99
2018-06-20T04:22:33.521Z,99.99
2018-06-20T04:32:32.564Z,99.99
2018-06-20T04:42:25.498Z,99.99
2018-06-20T04:52:24.210Z,99.99
2018-06-20T05:02:22.182Z,99.99
2018-06-20T05:12:17.572Z,99.99
2018-06-20T05:22:16.743Z,99.99
2018-06-20T05:32:16.522Z,99.99
2018-06-20T05:42:16.745Z,97.97
2018-06-20T05:52:17.016Z,94.93
2018-06-20T06:02:13.530Z,95.23
2018-06-20T06:12:10.901Z,92.35
2018-06-20T06:22:08.967Z,91.16
2018-06-20T06:32:07.649Z,90.17
2018-06-20T06:41:54.178Z,87.04
2018-06-20T06:51:52.691Z,87.85
2018-06-20T07:01:51.004Z,86.28
2018-06-20T07:11:49.535Z,87.47
2018-06-20T07:21:49.235Z,85.30
2018-06-20T07:31:45.802Z,84.76
2018-06-20T07:41:42.698Z,84.03
2018-06-20T07:51:41.273Z,79.18
2018-06-20T08:01:41.408Z,78.29
2018-06-20T08:11:41.879Z,73.59
2018-06-20T08:21:39.588Z,71.28
2018-06-20T08:31:38.264Z,71.08
2018-06-20T08:41:38.176Z,70.81
2018-06-20T08:51:37.127Z,72.09
2018-06-20T09:01:36.027Z,69.75
2018-06-20T09:11:32.659Z,67.28
2018-06-20T09:21:31.284Z,65.83
2018-06-20T09:31:30.817Z,67.44
2018-06-20T09:41:31.208Z,72.68
2018-06-20T09:51:14.553Z,69.65
2018-06-20T10:00:44.271Z,66.18
2018-06-20T10:10:25.237Z,67.44
2018-06-20T10:20:14.739Z,67.05
2018-06-20T10:29:57.636Z,64.57
2018-06-20T10:39:27.487Z,67.57
2018-06-20T10:49:09.213Z,65.47
2018-06-20T10:58:39.779Z,62.04
2018-06-20T11:08:17.160Z,62.34
2018-06-20T11:17:55.242Z,59.88
2018-06-20T11:27:33.710Z,60.61
2018-06-20T11:37:12.114Z,60.10
2018-06-20T11:46:50.617Z,52.06
2018-06-20T11:56:27.923Z,52.89
2018-06-20T12:06:05.478Z,54.90
2018-06-20T12:15:51.744Z,55.91
2018-06-20T12:25:16.536Z,51.37
2018-06-20T12:34:55.574Z,50.12
2018-06-20T12:44:37.413Z,51.00
2018-06-20T12:54:11.199Z,48.63
2018-06-20T13:03:41.523Z,51.17
2018-06-20T13:13:22.972Z,50.24
2018-06-20T13:22:56.606Z,46.09
2018-06-20T13:32:30.534Z,45.61
2018-06-20T13:42:04.026Z,47.63
2018-06-20T13:51:38.210Z,46.48
2018-06-20T14:01:11.297Z,47.68
2018-06-20T14:10:45.856Z,44.85
2018-06-20T14:20:19.002Z,48.14
2018-06-20T14:29:50.337Z,55.27
2018-06-20T14:39:31.947Z,49.16
2018-06-20T14:49:05.838Z,49.17
2018-06-20T14:58:40.509Z,54.74
2018-06-20T15:08:09.190Z,52.20
2018-06-20T15:17:38.175Z,60.64
2018-06-20T15:27:08.881Z,55.57
2018-06-20T15:36:40.849Z,56.11
2018-06-20T15:46:20.894Z,60.72
2018-06-20T15:55:53.755Z,61.93
2018-06-20T16:05:19.647Z,61.07
2018-06-20T16:14:55.406Z,64.68
2018-06-20T16:24:36.556Z,62.08
2018-06-20T16:34:16.706Z,62.71
2018-06-20T16:43:50.937Z,66.75
2018-06-20T16:53:23.130Z,66.98
2018-06-20T17:02:55.739Z,67.80
2018-06-20T17:12:43.861Z,70.90
2018-06-20T17:22:41.162Z,68.86
2018-06-20T17:32:35.759Z,64.00
2018-06-20T17:42:02.421Z,68.57
2018-06-20T17:51:50.872Z,65.80
2018-06-20T18:01:48.654Z,71.69
2018-06-20T18:11:43.152Z,69.42
2018-06-20T18:21:30.094Z,75.69
2018-06-20T18:31:14.304Z,80.91
2018-06-20T18:41:11.681Z,82.28
2018-06-20T18:51:06.736Z,84.08
2018-06-20T19:01:04.323Z,86.11
2018-06-20T19:11:00.503Z,86.79
2018-06-20T19:20:57.835Z,87.93
2018-06-20T19:30:55.221Z,89.26
2018-06-20T19:40:53.890Z,89.50
2018-06-20T19:50:50.527Z,91.24
2018-06-20T20:00:48.666Z,93.77
2018-06-20T20:10:47.808Z,93.42
2018-06-20T20:20:33.495Z,93.57
2018-06-20T20:30:30.740Z,95.11
2018-06-20T20:40:27.308Z,97.15
2018-06-20T20:50:24.919Z,96.80
2018-06-20T21:00:23.325Z,98.00
2018-06-20T21:10:20.270Z,98.84
2018-06-20T21:20:15.840Z,99.69
2018-06-20T21:30:12.204Z,99.94
2018-06-20T21:40:00.166Z,99.99
2018-06-20T21:50:00.033Z,99.99
2018-06-20T21:59:53.132Z,99.99
2018-06-20T22:09:50.863Z,99.99
2018-06-20T22:19:50.588Z,99.99
2018-06-20T22:29:47.980Z,99.99
2018-06-20T22:39:47.123Z,99.99
2018-06-20T22:49:44.049Z,99.99
2018-06-20T22:59:43.528Z,99.99
2018-06-20T23:09:41.517Z,99.99
2018-06-20T23:19:37.961Z,99.99
2018-06-20T23:29:37.056Z,99.99
2018-06-20T23:39:34.754Z,99.99
2018-06-20T23:49:32.635Z,99.99
2018-06-20T23:59:29.648Z,99.99
